Terminal Aerodrome Forecast
Issued by NWS

Home | Current Version | Previous Version | Graphics & Text | Print | Product List | Glossary On
Versions: 1 2 3 4 5 6 7 8 9 10 11 12 13 14 15 16 17 18 19 20 21 22 23 24
000
FTUS45 KGGW 250520
TAFGDV
TAF
KGDV 250520Z 2506/2606 15012KT P6SM SCT180 WS020/17045KT
     FM251400 21007KT P6SM BKN120
     FM251600 27007KT P6SM BKN090
     FM252000 30007KT P6SM VCSH BKN070
     FM260000 33005KT P6SM VCSH OVC080=

USA.gov is the U.S. government's official web portal to all federal, state and local government web resources and services.